Latest Weather Observations for Legendre Island

IDW60801

Issued at 7:04 am WST Wednesday 22 February 2017 (issued every 30 minutes, with the page automatically refreshed every 10 minutes)

About weather observations | Map of weather stations | Latest weather observations for WA | Other Formats
Station Details ID: 004095 Name: LEGENDRE ISLAND Lat: -20.36 Lon: 116.84 Height: 29.0 m
Data from the previous 72 hours. | See also: Recent months at Legendre Island
Date/Time
WST
Temp
°C
App
Temp
°C
Dew
Point
°C
Rel
Hum
%
Delta-T
°C
Wind Press
QNH
hPa
Press
MSL
hPa
Rain since
9am
mm
Dir  Spd
km/h
Gust
km/h
Spd
kts
Gust
kts
22/07:00am 30.7 37.2 29.6 94 0.8 S 17 22 9 12 1009.9 1009.7 -
22/06:30am 29.5 36.3 29.5 100 0.0 WSW 15 17 8 9 1009.7 1009.5 -
22/06:00am 29.1 35.9 29.1 100 0.0 W 13 15 7 8 1009.6 1009.4 -
22/05:30am 29.1 35.9 29.1 100 0.0 W 13 17 7 9 1009.4 1009.2 -
22/05:00am 29.1 35.6 29.1 100 0.0 WNW 15 17 8 9 1009.5 1009.3 -
22/04:30am 29.2 35.3 29.2 100 0.0 WNW 17 20 9 11 1009.2 1009.0 -
22/04:00am 29.4 36.1 29.4 100 0.0 W 15 19 8 10 1008.9 1008.7 -
22/03:30am 29.5 35.9 29.5 100 0.0 W 17 22 9 12 1008.7 1008.5 -
22/03:00am 29.2 35.0 29.2 100 0.0 W 19 22 10 12 1008.6 1008.4 -
22/02:30am 29.2 34.8 29.2 100 0.0 WNW 20 26 11 14 1008.6 1008.4 -
22/02:00am 29.1 34.6 29.1 100 0.0 WNW 20 26 11 14 1008.8 1008.6 -
22/01:30am 29.1 34.6 28.9 99 0.1 WNW 19 22 10 12 1008.9 1008.7 -
22/01:00am 29.1 34.6 28.8 98 0.2 WNW 19 24 10 13 1009.2 1009.0 -
22/12:30am 29.1 34.6 29.1 100 0.0 W 20 28 11 15 1009.3 1009.1 -
22/12:00am 29.2 33.8 28.9 98 0.2 W 24 30 13 16 1009.6 1009.4 -
 
Date/Time
WST
Temp
°C
App
Temp
°C
Dew
Point
°C
Rel
Hum
%
Delta-T
°C
Wind Press
QNH
hPa
Press
MSL
hPa
Rain since
9am
mm
Dir  Spd
km/h
Gust
km/h
Spd
kts
Gust
kts
21/11:30pm 29.2 33.6 29.2 100 0.0 WNW 26 33 14 18 1009.7 1009.5 -
21/11:00pm 29.3 33.8 29.3 100 0.0 WNW 26 33 14 18 1010.1 1009.9 -
21/10:30pm 29.2 34.0 29.2 100 0.0 WNW 24 30 13 16 1010.0 1009.8 -
21/10:00pm 29.2 34.4 29.2 100 0.0 WNW 22 26 12 14 1010.1 1009.9 -
21/09:30pm 29.2 34.4 29.2 100 0.0 WNW 22 26 12 14 1010.1 1009.9 -
21/09:00pm 29.2 34.4 29.2 100 0.0 WNW 22 26 12 14 1010.0 1009.8 -
21/08:30pm 29.1 34.6 29.1 100 0.0 WNW 20 26 11 14 1009.9 1009.7 -
21/08:00pm 29.2 34.4 29.2 100 0.0 W 22 28 12 15 1009.6 1009.4 -
21/07:30pm 29.1 34.6 29.1 100 0.0 WNW 20 26 11 14 1009.4 1009.2 -
21/07:00pm 29.3 34.6 29.3 100 0.0 WNW 22 26 12 14 1008.9 1008.7 -
21/06:30pm 29.6 34.7 29.6 100 0.0 WNW 24 30 13 16 1008.3 1008.1 -
21/06:00pm 30.2 35.8 30.2 100 0.0 WNW 24 28 13 15 1008.0 1007.8 -
21/05:30pm 30.7 36.7 30.7 100 0.0 WNW 24 30 13 16 1007.6 1007.4 -
21/05:00pm 31.0 37.3 31.0 100 0.0 WNW 24 28 13 15 1007.5 1007.3 -
21/04:30pm 31.8 38.4 31.8 100 0.0 WNW 26 30 14 16 1007.7 1007.5 -
21/04:00pm 32.2 38.7 31.7 97 0.4 WNW 26 30 14 16 1007.6 1007.4 -
21/03:30pm 32.1 38.5 31.2 95 0.7 WNW 24 30 13 16 1007.6 1007.4 -
21/03:00pm 32.3 38.0 30.8 92 1.1 NW 26 32 14 17 1007.8 1007.6 -
21/02:30pm 32.1 37.8 30.8 93 1.0 NW 26 30 14 16 1008.0 1007.8 -
21/02:00pm 32.6 38.7 31.3 93 1.0 NW 26 30 14 16 1008.2 1008.0 -
21/01:30pm 32.5 39.5 31.4 94 0.8 NW 22 26 12 14 1008.4 1008.2 -
21/01:00pm 32.0 39.3 31.3 96 0.5 NW 20 24 11 13 1008.9 1008.7 -
21/12:30pm 32.8 40.6 31.9 95 0.7 NW 20 24 11 13 1009.3 1009.1 -
21/12:00pm 32.9 41.0 31.6 93 1.0 WNW 17 24 9 13 1009.6 1009.4 -
21/11:30am 33.2 39.0 28.2 75 3.7 WNW 15 20 8 11 1009.7 1009.5 -
21/11:00am 33.5 39.0 27.3 70 4.5 W 13 17 7 9 1009.8 1009.6 -
21/10:30am 33.7 38.5 26.2 65 5.4 SW 13 17 7 9 1010.2 1010.0 -
21/10:00am 33.3 38.4 27.3 71 4.4 SW 15 19 8 10 1010.4 1010.2 -
21/09:30am 33.2 39.9 29.9 83 2.5 SW 17 20 9 11 1010.5 1010.3 -
21/09:00am 31.9 40.3 31.9 100 0.0 SW 17 20 9 11 1010.4 1010.2 -
21/08:30am 31.2 38.6 31.2 100 0.0 WSW 19 22 10 12 1010.3 1010.1 -
21/08:00am 30.8 37.3 30.8 100 0.0 SW 22 26 12 14 1009.8 1009.6 -
21/07:30am 30.1 36.4 30.1 100 0.0 SW 20 26 11 14 1009.5 1009.3 -
21/07:00am 29.3 34.6 29.3 100 0.0 SW 22 26 12 14 1009.2 1009.0 -
21/06:30am 28.9 33.1 28.9 100 0.0 SW 26 32 14 17 1009.1 1008.9 -
21/06:00am 28.8 32.9 28.8 100 0.0 SW 26 33 14 18 1009.0 1008.8 -
21/05:30am 28.6 33.9 28.6 100 0.0 SW 19 22 10 12 1008.8 1008.6 -
21/05:00am 28.7 33.9 28.7 100 0.0 SW 20 24 11 13 1008.6 1008.4 -
21/04:30am 28.7 34.1 28.7 100 0.0 SW 19 22 10 12 1008.5 1008.3 -
21/04:00am 28.6 33.9 28.6 100 0.0 SW 19 22 10 12 1008.3 1008.1 -
21/03:30am 28.5 34.1 28.5 100 0.0 SW 17 20 9 11 1008.4 1008.2 -
21/03:00am 28.6 33.7 28.6 100 0.0 SW 20 24 11 13 1008.3 1008.1 -
21/02:30am 28.6 33.3 28.6 100 0.0 SW 22 26 12 14 1008.6 1008.4 -
21/02:00am 28.5 33.2 28.5 100 0.0 SW 22 30 12 16 1008.8 1008.6 -
21/01:30am 28.4 32.6 28.4 100 0.0 SW 24 30 13 16 1008.9 1008.7 -
21/01:00am 28.4 32.2 28.4 100 0.0 SW 26 32 14 17 1009.0 1008.8 -
21/12:30am 28.4 32.6 28.4 100 0.0 SW 24 30 13 16 1009.2 1009.0 -
21/12:00am 28.4 31.9 28.4 100 0.0 SW 28 32 15 17 1009.7 1009.5 -
 
Date/Time
WST
Temp
°C
App
Temp
°C
Dew
Point
°C
Rel
Hum
%
Delta-T
°C
Wind Press
QNH
hPa
Press
MSL
hPa
Rain since
9am
mm
Dir  Spd
km/h
Gust
km/h
Spd
kts
Gust
kts
20/11:30pm 28.3 31.7 28.3 100 0.0 WSW 28 33 15 18 1009.8 1009.6 -
20/11:00pm 28.1 31.7 28.1 100 0.0 WSW 26 30 14 16 1009.8 1009.6 -
20/10:30pm 28.1 32.5 28.1 100 0.0 WSW 22 28 12 15 1009.9 1009.7 -
20/10:00pm 28.2 32.6 28.2 100 0.0 WSW 22 26 12 14 1009.8 1009.6 -
20/09:30pm 28.3 33.2 28.3 100 0.0 WSW 20 24 11 13 1009.6 1009.4 -
20/09:00pm 28.4 32.6 28.4 100 0.0 W 24 28 13 15 1009.4 1009.2 -
20/08:30pm 28.4 33.4 28.4 100 0.0 W 20 26 11 14 1009.1 1008.9 -
20/08:00pm 28.4 33.4 28.4 100 0.0 W 20 26 11 14 1008.7 1008.5 -
20/07:30pm 28.5 33.5 28.5 100 0.0 WNW 20 24 11 13 1008.5 1008.3 -
20/07:00pm 28.6 33.7 28.6 100 0.0 WNW 20 24 11 13 1007.9 1007.7 -
20/06:30pm 29.2 34.4 29.2 100 0.0 WNW 22 24 12 13 1007.7 1007.5 -
20/06:00pm 29.7 35.3 29.7 100 0.0 WNW 22 28 12 15 1007.6 1007.4 -
20/05:30pm 30.4 36.9 30.4 100 0.0 WNW 20 26 11 14 1007.3 1007.1 -
20/05:00pm 31.6 38.6 30.7 95 0.7 WNW 19 22 10 12 1007.3 1007.1 -
20/04:30pm 31.5 38.8 30.6 95 0.7 W 17 22 9 12 1007.5 1007.3 -
20/04:00pm 32.0 39.4 30.7 93 1.0 W 17 20 9 11 1007.6 1007.4 -
20/03:30pm 32.8 40.7 30.9 90 1.4 W 15 19 8 10 1007.6 1007.4 -
20/03:00pm 32.8 40.7 31.3 92 1.1 W 17 20 9 11 1007.7 1007.5 -
20/02:30pm 32.2 39.2 30.3 90 1.4 W 17 22 9 12 1007.8 1007.6 -
20/02:00pm 32.1 39.4 30.6 92 1.1 W 17 20 9 11 1007.9 1007.7 -
20/01:30pm 31.8 38.7 30.1 91 1.3 W 17 20 9 11 1008.1 1007.9 -
20/01:00pm 31.9 39.0 30.4 92 1.1 W 17 24 9 13 1008.4 1008.2 -
20/12:30pm 32.6 40.1 30.9 91 1.3 W 17 20 9 11 1008.8 1008.6 -
20/12:00pm 32.3 40.1 30.8 92 1.1 W 15 20 8 11 1009.2 1009.0 -
20/11:30am 31.7 39.3 30.6 94 0.8 W 15 22 8 12 1009.5 1009.3 -
20/11:00am 31.5 39.1 30.6 95 0.7 W 15 19 8 10 1009.6 1009.4 -
20/10:30am 31.9 40.2 31.4 97 0.4 W 15 20 8 11 1009.8 1009.6 -
20/10:00am 31.3 39.4 31.1 99 0.2 W 15 20 8 11 1010.1 1009.9 -
20/09:30am 31.1 39.2 31.1 100 0.0 W 15 19 8 10 1010.1 1009.9 -
20/09:00am 30.2 37.9 30.2 100 0.0 W 13 17 7 9 1010.2 1010.0 -
20/08:30am 30.5 38.1 30.5 100 0.0 W 15 19 8 10 1010.1 1009.9 -
20/08:00am 29.9 36.2 29.9 100 0.0 W 19 22 10 12 1010.0 1009.8 -
20/07:30am 29.6 36.1 29.6 100 0.0 WSW 17 20 9 11 1010.1 1009.9 -
20/07:00am 28.6 33.9 28.6 100 0.0 WSW 19 22 10 12 1010.0 1009.8 -
20/06:30am 28.4 33.4 28.4 100 0.0 WSW 20 24 11 13 1009.8 1009.6 -
20/06:00am 28.1 32.9 28.1 100 0.0 WSW 20 24 11 13 1009.4 1009.2 -
20/05:30am 28.1 32.1 28.1 100 0.0 WSW 24 30 13 16 1009.1 1008.9 -
20/05:00am 28.0 31.9 28.0 100 0.0 WSW 24 30 13 16 1008.7 1008.5 -
20/04:30am 28.1 32.1 28.1 100 0.0 WSW 24 28 13 15 1008.9 1008.7 -
20/04:00am 28.1 32.9 28.1 100 0.0 WSW 20 24 11 13 1008.7 1008.5 -
20/03:30am 28.2 33.0 28.2 100 0.0 WSW 20 24 11 13 1008.8 1008.6 -
20/03:00am 28.3 33.2 28.3 100 0.0 WSW 20 24 11 13 1008.8 1008.6 -
20/02:30am 28.3 33.2 28.3 100 0.0 WSW 20 24 11 13 1009.0 1008.8 -
20/02:00am 28.5 33.7 28.5 100 0.0 WSW 19 22 10 12 1009.3 1009.1 -
20/01:30am 28.6 33.3 28.6 100 0.0 SW 22 28 12 15 1009.3 1009.1 -
20/01:00am 28.5 33.5 28.5 100 0.0 WSW 20 24 11 13 1009.6 1009.4 -
20/12:30am 28.6 33.0 28.6 100 0.0 SW 24 30 13 16 1009.7 1009.5 -
20/12:00am 28.5 32.8 28.5 100 0.0 SW 24 30 13 16 1009.9 1009.7 -
 
Date/Time
WST
Temp
°C
App
Temp
°C
Dew
Point
°C
Rel
Hum
%
Delta-T
°C
Wind Press
QNH
hPa
Press
MSL
hPa
Rain since
9am
mm
Dir  Spd
km/h
Gust
km/h
Spd
kts
Gust
kts
19/11:30pm 28.5 33.5 28.5 100 0.0 SW 20 26 11 14 1009.6 1009.4 -
19/11:00pm 28.4 33.4 28.4 100 0.0 SW 20 22 11 12 1009.7 1009.5 -
19/10:30pm 28.4 33.4 28.4 100 0.0 SW 20 24 11 13 1009.7 1009.5 -
19/10:00pm 28.5 33.7 28.5 100 0.0 WSW 19 20 10 11 1009.6 1009.4 -
19/09:30pm 28.5 33.7 28.5 100 0.0 WSW 19 20 10 11 1009.5 1009.3 -
19/09:00pm 28.6 34.3 28.6 100 0.0 WSW 17 20 9 11 1009.5 1009.3 -
19/08:30pm 28.6 35.1 28.6 100 0.0 W 13 17 7 9 1009.4 1009.2 -
19/08:00pm 28.8 35.4 28.8 100 0.0 WNW 13 15 7 8 1009.2 1009.0 -
19/07:30pm 28.9 35.6 28.9 100 0.0 WNW 13 17 7 9 1008.9 1008.7 -
19/07:00pm 29.2 35.9 28.9 98 0.2 WNW 13 17 7 9 1008.6 1008.4 -
19/06:30pm 29.8 35.7 28.4 92 1.0 NW 15 17 8 9 1008.3 1008.1 -
19/06:00pm 30.5 35.7 27.9 86 1.9 NW 17 19 9 10 1008.2 1008.0 -
19/05:30pm 30.8 35.9 27.8 84 2.2 NW 17 19 9 10 1008.3 1008.1 -
19/05:00pm 31.1 35.9 27.4 81 2.7 NW 17 19 9 10 1008.2 1008.0 -
19/04:30pm 31.6 37.0 27.7 80 2.8 NW 15 20 8 11 1008.2 1008.0 -
19/04:00pm 31.4 36.4 27.1 78 3.1 NW 15 19 8 10 1008.5 1008.3 -
19/03:30pm 31.6 36.8 27.9 81 2.7 NW 17 20 9 11 1008.7 1008.5 -
19/03:00pm 31.7 37.3 28.0 81 2.7 NNW 15 19 8 10 1008.9 1008.7 -
19/02:30pm 32.2 37.9 28.1 79 3.0 NNW 15 19 8 10 1009.3 1009.1 -
19/02:00pm 31.5 36.8 27.6 80 2.8 NNW 15 19 8 10 1009.6 1009.4 -
19/01:30pm 31.8 36.7 27.0 76 3.5 NNW 15 17 8 9 1009.8 1009.6 -
19/01:00pm 31.7 37.4 27.6 79 3.0 NNW 13 17 7 9 1010.0 1009.8 -
19/12:30pm 31.1 37.6 28.1 84 2.2 NNW 11 13 6 7 1010.1 1009.9 -
19/12:00pm 31.6 38.1 28.1 82 2.6 N 11 13 6 7 1010.5 1010.3 -
19/11:30am 31.3 38.6 28.7 86 1.9 N 9 13 5 7 1010.7 1010.5 -
19/11:00am 31.2 38.4 28.6 86 1.9 N 9 13 5 7 1010.9 1010.7 -
19/10:30am 30.6 37.5 28.2 87 1.8 N 9 13 5 7 1011.3 1011.1 -
19/10:00am 32.0 38.0 26.1 71 4.2 S 6 11 3 6 1011.6 1011.4 -
19/09:30am 31.3 37.6 27.4 80 2.8 S 9 15 5 8 1011.8 1011.6 -
19/09:00am 31.3 39.4 29.7 91 1.2 S 9 13 5 7 1012.1 1011.9 -
19/08:30am 30.5 37.7 29.6 95 0.7 SSW 13 19 7 10 1012.1 1011.9 -
19/08:00am 29.3 36.3 29.3 100 0.0 SSW 13 17 7 9 1012.1 1011.9 -
19/07:30am 28.8 35.4 28.8 100 0.0 SW 13 15 7 8 1011.9 1011.7 -

Other Formats:

Comma delimited format used in spreadsheet applications
http://www.bom.gov.au/fwo/IDW60801/IDW60801.94307.axf

JavaScript Object Notation format (JSON) in row-major order
http://www.bom.gov.au/fwo/IDW60801/IDW60801.94307.json